Arlington, North Carolina
Current Conditions -  °F | °C
As of 2:35 PM on Friday 24 Oct 2014 (Local Time) from KUKF Reporting Station
Clear Clear  
Wind Chill: 66°   Ceiling: Unl
Heat Index: 66°   Visibility: 10mi
Dew Point: 36°   Wind: 3mph
Humidity: 32%   Direction: 150°SSE
Pressure: 30.05"   Gusts: NA
Location:  36.2274°N, 80.767°W
Report Text: KUKF 241835Z AUTO 15003KT 10SM CLR 19/02 A3005 RMK AO2
Loading
Personal Weather Stations






























Interactive Weather Map New forecast layout! Learn more

10-Day Weather Forecast

Advertisements
Track Severe Weather on mobile